Time;durP1;ratioP1;P1;durP2;ratioP2;P2;SDS_P1;SDS_P2;PMS_P1;PMS_P2;Temp;Humidity;BMP_temperature;BMP_pressure;BME280_temperature;BME280_humidity;BME280_pressure;Samples;Min_cycle;Max_cycle;Signal;HPM_P1;HPM_P2
2022/03/15 00:01:17;;;;;;;;;;;4.80;99.90;;;;;;5046306;28;20496;-81
2022/03/15 00:03:42;;;;;;;;;;;4.80;99.90;;;;;;5042293;28;19920;-81
2022/03/15 00:06:08;;;;;;;;;;;4.80;99.90;;;;;;5056265;28;20011;-81
2022/03/15 00:08:34;;;;;;;;;;;4.80;99.90;;;;;;5066033;28;19913;-81
2022/03/15 00:11:02;;;;;;;;;;;4.80;99.90;;;;;;5042702;28;19917;-81
2022/03/15 00:13:30;;;;;;;;;;;4.80;99.90;;;;;;5051707;28;19925;-81
2022/03/15 00:16:00;;;;;;;;;;;4.80;99.90;;;;;;5060200;28;19912;-81
2022/03/15 00:18:27;;;;;;;;;;;4.80;99.90;;;;;;5068533;28;19916;-80
2022/03/15 00:20:57;;;;;;;;;;;4.80;99.90;;;;;;5047521;28;20060;-80
2022/03/15 00:23:22;;;;;;;;;;;4.80;99.90;;;;;;5045017;28;19921;-81
2022/03/15 00:25:48;;;;;;;;;;;4.80;99.90;;;;;;5058649;28;19913;-81
2022/03/15 00:28:14;;;;;;;;;;;4.80;99.90;;;;;;5069354;28;19970;-81
2022/03/15 00:30:39;;;;;;;;;;;4.80;99.90;;;;;;5041643;28;19983;-81
2022/03/15 00:33:07;;;;;;;;;;;4.70;99.90;;;;;;5034019;28;19917;-81
2022/03/15 00:35:32;;;;;;;;;;;4.70;99.90;;;;;;5065688;28;19960;-81
2022/03/15 00:37:58;;;;;;;;;;;4.70;99.90;;;;;;5053570;28;19917;-81
2022/03/15 00:40:24;;;;;;;;;;;4.70;99.90;;;;;;5055963;28;20341;-80
2022/03/15 00:42:53;;;;;;;;;;;4.80;99.90;;;;;;5069424;28;19921;-80
2022/03/15 00:45:19;;;;;;;;;;;4.90;99.90;;;;;;5062785;28;19960;-81
2022/03/15 00:47:45;;;;;;;;;;;4.90;99.90;;;;;;5047517;28;19916;-81
2022/03/15 00:50:11;;;;;;;;;;;5.00;99.90;;;;;;5054711;28;19919;-81
2022/03/15 00:52:37;;;;;;;;;;;5.10;99.90;;;;;;5069516;28;19912;-80
2022/03/15 00:55:04;;;;;;;;;;;5.20;99.90;;;;;;5064929;28;19923;-81
2022/03/15 00:57:30;;;;;;;;;;;5.10;99.90;;;;;;5037811;28;19991;-81
2022/03/15 00:59:56;;;;;;;;;;;5.20;99.90;;;;;;5040785;28;20012;-81
2022/03/15 01:02:21;;;;;;;;;;;5.20;99.90;;;;;;5052270;28;19917;-81
2022/03/15 01:04:47;;;;;;;;;;;5.30;99.90;;;;;;5038783;28;19916;-80
2022/03/15 01:07:12;;;;;;;;;;;5.30;99.90;;;;;;5050235;28;19988;-81
2022/03/15 01:09:39;;;;;;;;;;;5.40;99.90;;;;;;5047064;28;19917;-80
2022/03/15 01:12:05;;;;;;;;;;;5.40;99.90;;;;;;5061257;28;20363;-81
2022/03/15 01:14:30;;;;;;;;;;;5.20;99.90;;;;;;5033416;28;19917;-81
2022/03/15 01:16:57;;;;;;;;;;;5.20;99.90;;;;;;5063362;28;19913;-81
2022/03/15 01:19:23;;;;;;;;;;;5.10;99.90;;;;;;5049033;28;19921;-81
2022/03/15 01:21:49;;;;;;;;;;;5.00;99.90;;;;;;5068379;28;19919;-81
2022/03/15 01:24:14;;;;;;;;;;;4.90;99.90;;;;;;5059578;28;19917;-80
2022/03/15 01:26:40;;;;;;;;;;;4.90;99.90;;;;;;5042411;28;20407;-80
2022/03/15 01:29:06;;;;;;;;;;;4.80;99.90;;;;;;5057104;28;19952;-80
2022/03/15 01:31:31;;;;;;;;;;;4.90;99.90;;;;;;5064162;28;19916;-80
2022/03/15 01:33:57;;;;;;;;;;;5.00;99.90;;;;;;5044213;28;19921;-81
2022/03/15 01:36:23;;;;;;;;;;;5.10;99.90;;;;;;5060167;28;19917;-80
2022/03/15 01:38:48;;;;;;;;;;;5.20;99.90;;;;;;5064663;28;20007;-81
2022/03/15 01:41:14;;;;;;;;;;;5.30;99.90;;;;;;5039098;28;19917;-81
2022/03/15 01:43:40;;;;;;;;;;;5.40;99.90;;;;;;5064945;28;19917;-81
2022/03/15 01:46:06;;;;;;;;;;;5.50;99.90;;;;;;5055120;28;19920;-81
2022/03/15 01:48:32;;;;;;;;;;;5.60;99.90;;;;;;5040331;28;19924;-81
2022/03/15 01:50:58;;;;;;;;;;;5.70;99.90;;;;;;5054898;28;19913;-80
2022/03/15 01:53:23;;;;;;;;;;;5.80;99.90;;;;;;5058603;28;19913;-80
2022/03/15 01:55:49;;;;;;;;;;;5.80;99.90;;;;;;5065527;28;19912;-80
2022/03/15 01:58:15;;;;;;;;;;;5.80;99.90;;;;;;5042746;28;19932;-80
2022/03/15 02:00:40;;;;;;;;;;;5.90;99.90;;;;;;5071095;28;19921;-80
2022/03/15 02:03:06;;;;;;;;;;;5.90;99.90;;;;;;5065372;28;19924;-80
2022/03/15 02:05:31;;;;;;;;;;;5.90;99.90;;;;;;5054603;28;20007;-80
2022/03/15 02:08:06;;;;;;;;;;;5.90;99.90;;;;;;5056343;28;19916;-80
2022/03/15 02:10:31;;;;;;;;;;;5.90;99.90;;;;;;5065550;28;19940;-80
2022/03/15 02:12:57;;;;;;;;;;;5.90;99.90;;;;;;5044873;28;19986;-81
2022/03/15 02:15:22;;;;;;;;;;;5.90;99.90;;;;;;5056901;28;20419;-80
2022/03/15 02:17:48;;;;;;;;;;;5.90;99.90;;;;;;5043026;28;19922;-80
2022/03/15 02:20:13;;;;;;;;;;;5.90;99.90;;;;;;5057679;28;19909;-80
2022/03/15 02:22:39;;;;;;;;;;;5.80;99.90;;;;;;5043427;28;19940;-80
2022/03/15 02:25:04;;;;;;;;;;;5.80;99.90;;;;;;5044730;28;19916;-80
2022/03/15 02:27:30;;;;;;;;;;;5.70;99.90;;;;;;5053515;28;19920;-80
2022/03/15 02:29:55;;;;;;;;;;;5.60;99.90;;;;;;5057100;28;19968;-80
2022/03/15 02:32:21;;;;;;;;;;;5.50;99.90;;;;;;5052474;28;19935;-80
2022/03/15 02:34:46;;;;;;;;;;;5.40;99.90;;;;;;5045466;28;19936;-80
2022/03/15 02:37:12;;;;;;;;;;;5.40;99.90;;;;;;5046714;28;19972;-80
2022/03/15 02:39:38;;;;;;;;;;;5.30;99.90;;;;;;5071792;28;19919;-80
2022/03/15 02:42:03;;;;;;;;;;;5.30;99.90;;;;;;5044621;28;19920;-81
2022/03/15 02:44:29;;;;;;;;;;;5.30;99.90;;;;;;5038739;28;20302;-81
2022/03/15 02:46:54;;;;;;;;;;;5.20;99.90;;;;;;5072969;28;20003;-81
2022/03/15 02:49:20;;;;;;;;;;;5.20;99.90;;;;;;5048919;28;19917;-79
2022/03/15 02:51:45;;;;;;;;;;;5.20;99.90;;;;;;5056585;28;19920;-80
2022/03/15 02:54:13;;;;;;;;;;;5.30;99.90;;;;;;5069349;28;19920;-80
2022/03/15 02:56:43;;;;;;;;;;;5.30;99.90;;;;;;5039145;28;19917;-79
2022/03/15 02:59:14;;;;;;;;;;;5.40;99.90;;;;;;5044326;28;19928;-79
2022/03/15 03:01:41;;;;;;;;;;;5.40;99.90;;;;;;5063812;28;19917;-80
2022/03/15 03:04:06;;;;;;;;;;;5.40;99.90;;;;;;5064875;28;19973;-79
2022/03/15 03:06:32;;;;;;;;;;;5.40;99.90;;;;;;5057052;28;20272;-80
2022/03/15 03:08:58;;;;;;;;;;;5.40;99.90;;;;;;5062843;28;19920;-79
2022/03/15 03:11:24;;;;;;;;;;;5.50;99.90;;;;;;5045658;28;19920;-80
2022/03/15 03:13:52;;;;;;;;;;;5.50;99.90;;;;;;5071406;28;19920;-80
2022/03/15 03:16:18;;;;;;;;;;;5.50;99.90;;;;;;5038144;28;20287;-80
2022/03/15 03:18:43;;;;;;;;;;;5.60;99.90;;;;;;5061546;28;19916;-80
2022/03/15 03:21:09;;;;;;;;;;;5.50;99.90;;;;;;5038623;28;20398;-80
2022/03/15 03:23:35;;;;;;;;;;;5.50;99.90;;;;;;5056214;28;19916;-80
2022/03/15 03:26:01;;;;;;;;;;;5.50;99.90;;;;;;5054544;28;19913;-80
2022/03/15 03:28:37;;;;;;;;;;;5.40;99.90;;;;;;5056001;28;20329;-80
2022/03/15 03:31:07;;;;;;;;;;;5.40;99.90;;;;;;5057559;28;19913;-80
2022/03/15 03:33:33;;;;;;;;;;;5.40;99.90;;;;;;5052793;28;20030;-80
2022/03/15 03:35:59;;;;;;;;;;;5.30;99.90;;;;;;5060531;28;19990;-79
2022/03/15 03:38:24;;;;;;;;;;;5.30;99.90;;;;;;5062501;28;20359;-80
2022/03/15 03:40:50;;;;;;;;;;;5.30;99.90;;;;;;5064945;28;20294;-80
2022/03/15 03:43:16;;;;;;;;;;;5.40;99.90;;;;;;5073005;28;19920;-80
2022/03/15 03:45:41;;;;;;;;;;;5.40;99.90;;;;;;5057832;28;19913;-80
2022/03/15 03:48:07;;;;;;;;;;;5.50;99.90;;;;;;5054159;28;20336;-81
2022/03/15 03:50:34;;;;;;;;;;;5.50;99.90;;;;;;5053195;28;19917;-80
2022/03/15 03:53:00;;;;;;;;;;;5.60;99.90;;;;;;5063488;28;19916;-81
2022/03/15 03:55:25;;;;;;;;;;;5.60;99.90;;;;;;5066101;28;20404;-81
2022/03/15 03:57:51;;;;;;;;;;;5.70;99.90;;;;;;5047791;28;20016;-81
2022/03/15 04:00:16;;;;;;;;;;;5.70;99.90;;;;;;5050739;28;20296;-81
2022/03/15 04:02:42;;;;;;;;;;;5.70;99.90;;;;;;5064771;28;20287;-81
2022/03/15 04:05:08;;;;;;;;;;;5.70;99.90;;;;;;5053573;28;20355;-81
2022/03/15 04:07:35;;;;;;;;;;;5.70;99.90;;;;;;5066998;28;19959;-81
2022/03/15 04:10:00;;;;;;;;;;;5.70;99.90;;;;;;5059223;28;19920;-81
2022/03/15 04:12:28;;;;;;;;;;;5.70;99.90;;;;;;5041157;28;20270;-81
2022/03/15 04:14:58;;;;;;;;;;;5.60;99.90;;;;;;5056576;28;20635;-81
2022/03/15 04:17:24;;;;;;;;;;;5.50;99.90;;;;;;5072527;28;19925;-80
2022/03/15 04:19:49;;;;;;;;;;;5.50;99.90;;;;;;5070130;28;19909;-81
2022/03/15 04:22:15;;;;;;;;;;;5.50;99.90;;;;;;5036835;28;19917;-81
2022/03/15 04:24:41;;;;;;;;;;;5.40;99.90;;;;;;5031709;28;19932;-81
2022/03/15 04:27:06;;;;;;;;;;;5.40;99.90;;;;;;5042716;28;19917;-81
2022/03/15 04:29:32;;;;;;;;;;;5.40;99.90;;;;;;5044753;28;19916;-81
2022/03/15 04:31:57;;;;;;;;;;;5.30;99.90;;;;;;5036781;28;20311;-81
2022/03/15 04:34:24;;;;;;;;;;;5.30;99.90;;;;;;5068188;23;19924;-81
2022/03/15 04:36:53;;;;;;;;;;;5.30;99.90;;;;;;5068373;28;19916;-82
2022/03/15 04:39:19;;;;;;;;;;;5.30;99.90;;;;;;5086743;28;19936;-81
2022/03/15 04:41:45;;;;;;;;;;;5.30;99.90;;;;;;5063286;28;19921;-81
2022/03/15 04:44:12;;;;;;;;;;;5.30;99.90;;;;;;5082550;28;19920;-83
2022/03/15 04:46:38;;;;;;;;;;;5.30;99.90;;;;;;5080870;28;19920;-82
2022/03/15 04:49:03;;;;;;;;;;;5.30;99.90;;;;;;5082954;28;19912;-83
2022/03/15 04:51:29;;;;;;;;;;;5.20;99.90;;;;;;5089778;28;19900;-80
2022/03/15 04:53:55;;;;;;;;;;;5.20;99.90;;;;;;5114418;28;19900;-79
2022/03/15 04:56:21;;;;;;;;;;;5.20;99.90;;;;;;5069249;28;20394;-81
2022/03/15 04:58:47;;;;;;;;;;;5.20;99.90;;;;;;5082483;28;19917;-81
2022/03/15 05:01:13;;;;;;;;;;;5.10;99.90;;;;;;5078731;28;19919;-81
2022/03/15 05:03:38;;;;;;;;;;;5.10;99.90;;;;;;5066391;28;19921;-80
2022/03/15 05:06:04;;;;;;;;;;;5.00;99.90;;;;;;5068636;28;19924;-80
2022/03/15 05:08:30;;;;;;;;;;;5.00;99.90;;;;;;5094000;28;19944;-81
2022/03/15 05:11:07;;;;;;;;;;;5.10;99.90;;;;;;5092952;28;19974;-81
2022/03/15 05:13:35;;;;;;;;;;;5.10;99.90;;;;;;5090632;28;20239;-81
2022/03/15 05:16:01;;;;;;;;;;;5.10;99.90;;;;;;5077305;28;19912;-81
2022/03/15 05:18:26;;;;;;;;;;;5.10;99.90;;;;;;5086072;28;19919;-81
2022/03/15 05:20:52;;;;;;;;;;;5.10;99.90;;;;;;5066471;28;19916;-82
2022/03/15 05:23:17;;;;;;;;;;;5.20;99.90;;;;;;5077470;28;19920;-81
2022/03/15 05:25:43;;;;;;;;;;;5.20;99.90;;;;;;5079969;28;19912;-82
2022/03/15 05:28:09;;;;;;;;;;;5.20;99.90;;;;;;5098435;28;19955;-81
2022/03/15 05:30:35;;;;;;;;;;;5.20;99.90;;;;;;5089663;28;19923;-81
2022/03/15 05:33:00;;;;;;;;;;;5.20;99.90;;;;;;5065868;28;19939;-81
2022/03/15 05:35:26;;;;;;;;;;;5.20;99.90;;;;;;5076191;28;19925;-81
2022/03/15 05:37:52;;;;;;;;;;;5.20;99.90;;;;;;5096684;28;19970;-82
2022/03/15 05:40:18;;;;;;;;;;;5.20;99.90;;;;;;5075879;28;19924;-81
2022/03/15 05:42:43;;;;;;;;;;;5.20;99.90;;;;;;5082709;28;19920;-80
2022/03/15 05:45:09;;;;;;;;;;;5.20;99.90;;;;;;5091883;28;20479;-82
2022/03/15 05:47:35;;;;;;;;;;;5.10;99.90;;;;;;5091937;28;20341;-81
2022/03/15 05:50:01;;;;;;;;;;;5.20;99.90;;;;;;5088799;28;19942;-80
2022/03/15 05:52:26;;;;;;;;;;;5.10;99.90;;;;;;5074959;28;20383;-80
2022/03/15 05:54:52;;;;;;;;;;;5.10;99.90;;;;;;5070485;28;19916;-82
2022/03/15 05:57:17;;;;;;;;;;;5.10;99.90;;;;;;5073476;28;20010;-80
2022/03/15 05:59:43;;;;;;;;;;;5.20;99.90;;;;;;5065955;28;19916;-80
2022/03/15 06:02:08;;;;;;;;;;;5.20;99.90;;;;;;5079261;28;19912;-81
2022/03/15 06:04:34;;;;;;;;;;;5.20;99.90;;;;;;5073341;28;19925;-80
2022/03/15 06:07:01;;;;;;;;;;;5.20;99.90;;;;;;5082025;28;19955;-82
2022/03/15 06:09:26;;;;;;;;;;;5.20;99.90;;;;;;5084908;28;19912;-80
2022/03/15 06:11:52;;;;;;;;;;;5.30;99.90;;;;;;5076185;28;20370;-81
2022/03/15 06:14:19;;;;;;;;;;;5.30;99.90;;;;;;5078863;28;20104;-81
2022/03/15 06:16:45;;;;;;;;;;;5.30;99.90;;;;;;5092350;28;20330;-80
2022/03/15 06:19:10;;;;;;;;;;;5.40;99.90;;;;;;5090945;28;19916;-80
2022/03/15 06:21:36;;;;;;;;;;;5.40;99.90;;;;;;5060421;28;20019;-82
2022/03/15 06:24:02;;;;;;;;;;;5.40;99.90;;;;;;5089897;28;19939;-81
2022/03/15 06:26:28;;;;;;;;;;;5.40;99.90;;;;;;5068356;28;20377;-80
2022/03/15 06:28:54;;;;;;;;;;;5.40;99.90;;;;;;5080619;28;19922;-80
2022/03/15 06:31:20;;;;;;;;;;;5.50;99.90;;;;;;5086907;28;19935;-80
2022/03/15 06:33:47;;;;;;;;;;;5.50;99.90;;;;;;5069257;28;19924;-80
2022/03/15 06:36:12;;;;;;;;;;;5.50;99.90;;;;;;5076959;28;19924;-80
2022/03/15 06:38:39;;;;;;;;;;;5.50;99.90;;;;;;5061796;28;19917;-81
2022/03/15 06:41:05;;;;;;;;;;;5.60;99.90;;;;;;5070630;28;19912;-80
2022/03/15 06:43:30;;;;;;;;;;;5.60;99.90;;;;;;5066947;28;20274;-80
2022/03/15 06:45:56;;;;;;;;;;;5.60;99.90;;;;;;5091653;28;20659;-81
2022/03/15 06:48:21;;;;;;;;;;;5.70;99.90;;;;;;5066419;28;19912;-80
2022/03/15 06:50:47;;;;;;;;;;;5.70;99.90;;;;;;5096107;28;20385;-80
2022/03/15 06:53:12;;;;;;;;;;;5.80;99.90;;;;;;5094213;28;19911;-80
2022/03/15 06:55:38;;;;;;;;;;;5.90;99.90;;;;;;5070015;28;19920;-82
2022/03/15 06:58:03;;;;;;;;;;;5.90;99.90;;;;;;5076538;28;19916;-81
2022/03/15 07:00:29;;;;;;;;;;;6.00;99.90;;;;;;5079529;28;19913;-82
2022/03/15 07:02:55;;;;;;;;;;;6.00;99.90;;;;;;5069266;28;19956;-80
2022/03/15 07:05:20;;;;;;;;;;;6.10;99.90;;;;;;5071707;28;19928;-80
2022/03/15 07:07:46;;;;;;;;;;;6.10;99.90;;;;;;5068089;28;19916;-80
2022/03/15 07:10:17;;;;;;;;;;;6.20;99.90;;;;;;5076088;28;19923;-81
2022/03/15 07:12:42;;;;;;;;;;;6.20;99.90;;;;;;5061435;28;19966;-81
2022/03/15 07:15:10;;;;;;;;;;;6.20;99.90;;;;;;5093874;28;20229;-82
2022/03/15 07:17:38;;;;;;;;;;;6.20;99.90;;;;;;5065300;28;20413;-82
2022/03/15 07:20:04;;;;;;;;;;;6.30;99.90;;;;;;5087693;28;19924;-83
2022/03/15 07:22:29;;;;;;;;;;;6.30;99.90;;;;;;5063660;28;20461;-83
2022/03/15 07:24:55;;;;;;;;;;;6.40;99.90;;;;;;5065763;28;19973;-83
2022/03/15 07:27:21;;;;;;;;;;;6.40;99.90;;;;;;5063586;28;19920;-81
2022/03/15 07:29:46;;;;;;;;;;;6.40;99.90;;;;;;5087583;28;19912;-81
2022/03/15 07:32:12;;;;;;;;;;;6.40;99.90;;;;;;5083472;28;19912;-82
2022/03/15 07:34:37;;;;;;;;;;;6.50;99.90;;;;;;5090812;28;20003;-83
2022/03/15 07:37:03;;;;;;;;;;;6.50;99.90;;;;;;5090449;28;20140;-82
2022/03/15 07:39:29;;;;;;;;;;;6.50;99.90;;;;;;5063614;28;19917;-81
2022/03/15 07:41:55;;;;;;;;;;;6.60;99.90;;;;;;5067554;28;19924;-81
2022/03/15 07:44:20;;;;;;;;;;;6.60;99.90;;;;;;5076828;28;19946;-81
2022/03/15 07:46:49;;;;;;;;;;;6.60;99.90;;;;;;5066307;28;19931;-84
2022/03/15 07:49:16;;;;;;;;;;;6.70;99.90;;;;;;5060261;28;20012;-81
2022/03/15 07:51:42;;;;;;;;;;;6.70;99.90;;;;;;5064885;28;20375;-82
2022/03/15 07:54:07;;;;;;;;;;;6.80;99.90;;;;;;5066744;28;19923;-83
2022/03/15 07:56:33;;;;;;;;;;;6.80;99.90;;;;;;5059292;28;19917;-82
2022/03/15 07:58:58;;;;;;;;;;;6.80;99.90;;;;;;5084114;28;19938;-82
2022/03/15 08:01:24;;;;;;;;;;;6.90;99.90;;;;;;5092083;28;19939;-81
2022/03/15 08:03:50;;;;;;;;;;;6.90;99.90;;;;;;5072959;28;19924;-81
2022/03/15 08:06:15;;;;;;;;;;;6.90;99.90;;;;;;5091877;28;19958;-82
2022/03/15 08:08:42;;;;;;;;;;;7.00;99.90;;;;;;5066617;28;19916;-83
2022/03/15 08:11:07;;;;;;;;;;;7.00;99.90;;;;;;5087662;28;19971;-81
2022/03/15 08:13:34;;;;;;;;;;;7.10;99.90;;;;;;5080780;28;19916;-82
2022/03/15 08:16:01;;;;;;;;;;;7.10;99.90;;;;;;5076436;28;19912;-81
2022/03/15 08:18:27;;;;;;;;;;;7.10;99.90;;;;;;5080230;28;19913;-82
2022/03/15 08:20:54;;;;;;;;;;;7.10;99.90;;;;;;5080467;28;19917;-81
2022/03/15 08:23:21;;;;;;;;;;;7.20;99.90;;;;;;5063842;28;19998;-82
2022/03/15 08:25:47;;;;;;;;;;;7.20;99.90;;;;;;5068288;28;20282;-82
2022/03/15 08:28:12;;;;;;;;;;;7.30;99.90;;;;;;5066159;28;19917;-81
2022/03/15 08:30:38;;;;;;;;;;;7.30;99.90;;;;;;5071086;28;20440;-81
2022/03/15 08:33:04;;;;;;;;;;;7.30;99.90;;;;;;5065279;28;20352;-83
2022/03/15 08:35:29;;;;;;;;;;;7.40;99.90;;;;;;5071894;28;20371;-82
2022/03/15 08:37:55;;;;;;;;;;;7.50;99.90;;;;;;5077808;28;20027;-81
2022/03/15 08:40:21;;;;;;;;;;;7.50;99.90;;;;;;5072054;28;19947;-82
2022/03/15 08:42:48;;;;;;;;;;;7.60;99.90;;;;;;5057146;28;19924;-81
2022/03/15 08:45:14;;;;;;;;;;;7.60;99.90;;;;;;5082682;28;19969;-82
2022/03/15 08:47:40;;;;;;;;;;;7.60;99.90;;;;;;5079008;28;19916;-81
2022/03/15 08:50:06;;;;;;;;;;;7.60;99.90;;;;;;5075775;28;19916;-81
2022/03/15 08:52:32;;;;;;;;;;;7.60;99.90;;;;;;5080129;28;20019;-81
2022/03/15 08:54:57;;;;;;;;;;;7.60;99.90;;;;;;5067152;28;20425;-81
2022/03/15 08:57:23;;;;;;;;;;;7.60;99.90;;;;;;5058307;28;19959;-81
2022/03/15 08:59:49;;;;;;;;;;;7.50;99.90;;;;;;5061640;28;19965;-81
2022/03/15 09:02:17;;;;;;;;;;;7.50;99.90;;;;;;5080686;28;19944;-82
2022/03/15 09:04:45;;;;;;;;;;;7.50;99.90;;;;;;5079856;28;19929;-81
2022/03/15 09:07:10;;;;;;;;;;;7.40;99.90;;;;;;5082881;28;19912;-82
2022/03/15 09:09:36;;;;;;;;;;;7.40;99.90;;;;;;5074886;28;20054;-83
2022/03/15 09:12:03;;;;;;;;;;;7.40;99.90;;;;;;5078598;28;19947;-81
2022/03/15 09:14:29;;;;;;;;;;;7.40;99.90;;;;;;5055519;28;19916;-82
2022/03/15 09:17:00;;;;;;;;;;;7.40;99.90;;;;;;5084232;28;19919;-82
2022/03/15 09:19:26;;;;;;;;;;;7.40;99.90;;;;;;5085785;28;19916;-81
2022/03/15 09:21:51;;;;;;;;;;;7.40;99.90;;;;;;5056513;28;19923;-81
2022/03/15 09:24:17;;;;;;;;;;;7.40;99.90;;;;;;5054539;28;20315;-81
2022/03/15 09:26:43;;;;;;;;;;;7.40;99.90;;;;;;5070644;28;19912;-81
2022/03/15 09:29:09;;;;;;;;;;;7.40;99.90;;;;;;5054779;28;19966;-82
2022/03/15 09:31:35;;;;;;;;;;;7.40;99.90;;;;;;5054374;28;19912;-81
2022/03/15 09:34:01;;;;;;;;;;;7.40;99.90;;;;;;5054275;28;19917;-81
2022/03/15 09:36:27;;;;;;;;;;;7.40;99.90;;;;;;5070670;28;19958;-81
2022/03/15 09:38:53;;;;;;;;;;;7.40;99.90;;;;;;5070845;28;20391;-81
2022/03/15 09:41:19;;;;;;;;;;;7.40;99.90;;;;;;5071194;28;20424;-82
2022/03/15 09:43:46;;;;;;;;;;;7.40;99.90;;;;;;5071014;28;19917;-81
2022/03/15 09:46:13;;;;;;;;;;;7.30;99.90;;;;;;5071324;28;19908;-81
2022/03/15 09:48:39;;;;;;;;;;;7.30;99.90;;;;;;5054540;28;19932;-80
2022/03/15 09:51:05;;;;;;;;;;;7.30;99.90;;;;;;5072925;28;19931;-81
2022/03/15 09:53:31;;;;;;;;;;;7.40;99.90;;;;;;5076206;28;19913;-81
2022/03/15 09:55:57;;;;;;;;;;;7.30;99.90;;;;;;5074718;28;19916;-81
2022/03/15 09:58:23;;;;;;;;;;;7.40;99.90;;;;;;5073499;28;20303;-81
2022/03/15 10:00:53;;;;;;;;;;;7.40;99.90;;;;;;5075279;28;19912;-81
2022/03/15 10:03:19;;;;;;;;;;;7.50;99.90;;;;;;5075383;28;19967;-81
2022/03/15 10:05:45;;;;;;;;;;;7.60;99.90;;;;;;5075025;28;19908;-81
2022/03/15 10:08:13;;;;;;;;;;;7.60;99.90;;;;;;5058802;28;19912;-81
2022/03/15 10:10:39;;;;;;;;;;;7.70;99.90;;;;;;5076106;28;20008;-80
2022/03/15 10:13:04;;;;;;;;;;;7.80;99.90;;;;;;5059602;28;20379;-81
2022/03/15 10:15:30;;;;;;;;;;;7.70;99.90;;;;;;5077137;28;20050;-81
2022/03/15 10:18:04;;;;;;;;;;;7.70;99.90;;;;;;5075701;28;19908;-81
2022/03/15 10:20:32;;;;;;;;;;;7.70;99.90;;;;;;5060557;28;20050;-80
2022/03/15 10:22:59;;;;;;;;;;;7.70;99.90;;;;;;5059965;28;19972;-81
2022/03/15 10:25:27;;;;;;;;;;;7.60;99.90;;;;;;5077192;28;20378;-81
2022/03/15 10:27:57;;;;;;;;;;;7.60;99.90;;;;;;5076016;28;19930;-81
2022/03/15 10:30:23;;;;;;;;;;;7.60;99.90;;;;;;5059639;28;20442;-81
2022/03/15 10:32:50;;;;;;;;;;;7.50;99.90;;;;;;5076999;28;19909;-81
2022/03/15 10:35:45;;;;;;;;;;;7.60;99.90;;;;;;5075828;28;20094;-81
2022/03/15 10:38:11;;;;;;;;;;;7.50;99.90;;;;;;5057214;28;19908;-81
2022/03/15 10:40:38;;;;;;;;;;;7.50;99.90;;;;;;5075415;28;19981;-81
2022/03/15 10:43:08;;;;;;;;;;;7.50;99.90;;;;;;5075692;28;20176;-82
2022/03/15 10:45:35;;;;;;;;;;;7.50;99.90;;;;;;5075780;28;19962;-80
2022/03/15 10:48:02;;;;;;;;;;;7.50;99.90;;;;;;5074050;28;20371;-81
2022/03/15 10:50:30;;;;;;;;;;;7.60;99.90;;;;;;5079742;28;19909;-82
2022/03/15 10:52:56;;;;;;;;;;;7.60;99.90;;;;;;5084564;28;19936;-81
2022/03/15 10:55:27;;;;;;;;;;;7.60;99.90;;;;;;5072641;28;19909;-81
2022/03/15 10:57:54;;;;;;;;;;;7.60;99.90;;;;;;5072010;28;20069;-81
2022/03/15 11:00:26;;;;;;;;;;;7.50;99.90;;;;;;5072026;28;19999;-80
2022/03/15 11:02:52;;;;;;;;;;;7.50;99.90;;;;;;5054501;28;19913;-82
2022/03/15 11:05:27;;;;;;;;;;;7.50;99.90;;;;;;5072967;28;19918;-81
2022/03/15 11:07:53;;;;;;;;;;;7.60;99.90;;;;;;5072888;28;19913;-81
2022/03/15 11:10:19;;;;;;;;;;;7.60;99.90;;;;;;5073860;28;19908;-80
2022/03/15 11:13:02;;;;;;;;;;;7.70;99.90;;;;;;5073151;28;19908;-81
2022/03/15 11:15:29;;;;;;;;;;;7.70;99.90;;;;;;5073990;28;20295;-81
2022/03/15 11:17:58;;;;;;;;;;;7.80;99.90;;;;;;5074322;28;20015;-82
2022/03/15 11:20:27;;;;;;;;;;;7.80;99.90;;;;;;5075000;28;19920;-81
2022/03/15 11:22:57;;;;;;;;;;;7.80;99.90;;;;;;5074434;28;19924;-81
2022/03/15 11:25:24;;;;;;;;;;;7.80;99.90;;;;;;5075708;28;19919;-81
2022/03/15 11:27:53;;;;;;;;;;;7.70;99.90;;;;;;5075064;28;19915;-81
2022/03/15 11:30:19;;;;;;;;;;;7.70;99.90;;;;;;5074841;28;19915;-81
2022/03/15 11:32:46;;;;;;;;;;;7.80;99.90;;;;;;5074553;28;19908;-81
2022/03/15 11:35:12;;;;;;;;;;;7.80;99.90;;;;;;5057603;28;20394;-81
2022/03/15 11:37:40;;;;;;;;;;;7.90;99.90;;;;;;5057173;28;19912;-81
2022/03/15 11:40:07;;;;;;;;;;;7.90;99.90;;;;;;5074860;28;19919;-81
2022/03/15 11:42:34;;;;;;;;;;;7.90;99.90;;;;;;5057719;28;20286;-82
2022/03/15 11:45:04;;;;;;;;;;;7.80;99.90;;;;;;5075069;28;19951;-82
2022/03/15 11:47:49;;;;;;;;;;;7.80;99.90;;;;;;5074638;28;19909;-81
2022/03/15 11:50:27;;;;;;;;;;;7.80;99.90;;;;;;5076581;28;19913;-82
2022/03/15 11:53:06;;;;;;;;;;;7.80;99.90;;;;;;5079997;28;19954;-83
2022/03/15 11:55:31;;;;;;;;;;;7.70;99.90;;;;;;5082354;28;19930;-82
2022/03/15 11:58:01;;;;;;;;;;;7.70;99.90;;;;;;5088757;28;19909;-80
2022/03/15 12:00:30;;;;;;;;;;;7.70;99.90;;;;;;5091413;28;19897;-80
2022/03/15 12:03:02;;;;;;;;;;;7.70;99.90;;;;;;5079652;28;20013;-81
2022/03/15 12:05:27;;;;;;;;;;;7.70;99.90;;;;;;5055882;28;19955;-81
2022/03/15 12:08:12;;;;;;;;;;;7.70;99.90;;;;;;5070848;28;19963;-81
2022/03/15 12:10:45;;;;;;;;;;;7.70;99.90;;;;;;5071156;28;19908;-80
2022/03/15 12:13:13;;;;;;;;;;;7.70;99.90;;;;;;5070704;28;19919;-81
2022/03/15 12:15:40;;;;;;;;;;;7.80;99.90;;;;;;5054571;28;20073;-80
2022/03/15 12:18:23;;;;;;;;;;;7.80;99.90;;;;;;5070654;28;19913;-81
2022/03/15 12:20:59;;;;;;;;;;;7.80;99.90;;;;;;5056820;28;20386;-80
2022/03/15 12:23:28;;;;;;;;;;;7.80;99.90;;;;;;5070984;28;20374;-80
2022/03/15 12:25:54;;;;;;;;;;;7.80;99.90;;;;;;5071090;28;19935;-81
2022/03/15 12:28:31;;;;;;;;;;;7.80;99.90;;;;;;5055755;28;19912;-81
2022/03/15 12:31:07;;;;;;;;;;;7.70;99.90;;;;;;5055224;28;19935;-81
2022/03/15 12:33:34;;;;;;;;;;;7.70;99.90;;;;;;5072195;28;20323;-80
2022/03/15 12:36:04;;;;;;;;;;;7.70;99.90;;;;;;5075496;28;20378;-82
2022/03/15 12:38:37;;;;;;;;;;;7.70;99.90;;;;;;5072989;28;19962;-80
2022/03/15 12:41:03;;;;;;;;;;;7.70;99.90;;;;;;5072333;28;19915;-81
2022/03/15 12:43:30;;;;;;;;;;;7.60;99.90;;;;;;5072351;28;20190;-81
2022/03/15 12:45:58;;;;;;;;;;;7.60;99.90;;;;;;5055938;28;19913;-81
2022/03/15 12:48:28;;;;;;;;;;;7.60;99.90;;;;;;5055725;28;19923;-81
2022/03/15 12:50:56;;;;;;;;;;;7.60;99.90;;;;;;5055790;28;20386;-81
2022/03/15 12:53:32;;;;;;;;;;;7.60;99.90;;;;;;5056255;28;19917;-81
2022/03/15 12:56:00;;;;;;;;;;;7.60;99.90;;;;;;5073358;28;19919;-80
2022/03/15 12:58:25;;;;;;;;;;;7.60;99.90;;;;;;5072875;28;19908;-81
2022/03/15 13:00:52;;;;;;;;;;;7.60;99.90;;;;;;5056313;28;20287;-81
2022/03/15 13:03:18;;;;;;;;;;;7.50;99.90;;;;;;5071512;28;19944;-81
2022/03/15 13:05:45;;;;;;;;;;;7.50;99.90;;;;;;5073464;28;19908;-80
2022/03/15 13:08:12;;;;;;;;;;;7.40;99.90;;;;;;5073108;28;19909;-80
2022/03/15 13:10:39;;;;;;;;;;;7.40;99.90;;;;;;5056773;28;19913;-81
2022/03/15 13:13:13;;;;;;;;;;;7.30;99.90;;;;;;5072828;28;19917;-81
2022/03/15 13:15:40;;;;;;;;;;;7.30;99.90;;;;;;5076712;28;19972;-82
2022/03/15 13:18:07;;;;;;;;;;;7.30;99.90;;;;;;5075763;28;19912;-82
2022/03/15 13:20:34;;;;;;;;;;;7.20;99.90;;;;;;5078240;28;19931;-82
2022/03/15 13:23:04;;;;;;;;;;;7.20;99.90;;;;;;5076178;28;19913;-82
2022/03/15 13:25:43;;;;;;;;;;;7.10;99.90;;;;;;5064280;28;20339;-81
2022/03/15 13:28:15;;;;;;;;;;;7.00;99.90;;;;;;5073524;28;19924;-80
2022/03/15 13:30:45;;;;;;;;;;;6.90;99.90;;;;;;5073769;28;19909;-81
2022/03/15 13:33:14;;;;;;;;;;;6.80;99.90;;;;;;5074353;28;19908;-81
2022/03/15 13:35:40;;;;;;;;;;;6.80;99.90;;;;;;5073602;28;19956;-81
2022/03/15 13:38:18;;;;;;;;;;;6.70;99.90;;;;;;5074059;28;19908;-81
2022/03/15 13:40:46;;;;;;;;;;;6.70;99.90;;;;;;5057476;28;19969;-81
2022/03/15 13:43:14;;;;;;;;;;;6.70;99.90;;;;;;5075455;28;20268;-80
2022/03/15 13:45:40;;;;;;;;;;;6.70;99.90;;;;;;5057147;28;19928;-80
2022/03/15 13:48:09;;;;;;;;;;;6.60;99.90;;;;;;5056552;28;20292;-81
2022/03/15 13:50:35;;;;;;;;;;;6.60;99.90;;;;;;5057200;28;19919;-81
2022/03/15 13:53:01;;;;;;;;;;;6.60;99.90;;;;;;5056691;28;19912;-81
2022/03/15 13:55:27;;;;;;;;;;;6.60;99.90;;;;;;5073160;28;19912;-81
2022/03/15 13:57:52;;;;;;;;;;;6.60;99.90;;;;;;5073230;28;19916;-80
2022/03/15 14:00:21;;;;;;;;;;;6.50;99.90;;;;;;5073469;28;20366;-81
2022/03/15 14:02:51;;;;;;;;;;;6.50;99.90;;;;;;5073658;28;19909;-80
2022/03/15 14:05:22;;;;;;;;;;;6.40;99.90;;;;;;5073158;28;20298;-81
2022/03/15 14:07:59;;;;;;;;;;;6.40;99.90;;;;;;5056248;28;19916;-80
2022/03/15 14:10:25;;;;;;;;;;;6.40;99.90;;;;;;5073121;28;19962;-80
2022/03/15 14:12:52;;;;;;;;;;;6.40;99.90;;;;;;5060189;28;19917;-82
2022/03/15 14:15:19;;;;;;;;;;;6.40;99.90;;;;;;5078210;28;19909;-81
2022/03/15 14:17:49;;;;;;;;;;;6.40;99.90;;;;;;5078570;28;19912;-81
2022/03/15 14:20:20;;;;;;;;;;;6.40;99.90;;;;;;5061756;28;19917;-81
2022/03/15 14:22:53;;;;;;;;;;;6.40;99.90;;;;;;5077846;28;19920;-81
2022/03/15 14:25:22;;;;;;;;;;;6.40;99.90;;;;;;5076983;28;19958;-80
2022/03/15 14:27:52;;;;;;;;;;;6.40;99.90;;;;;;5061033;28;19913;-81
2022/03/15 14:30:18;;;;;;;;;;;6.30;99.90;;;;;;5079036;28;19908;-81